2026/08/29

Sensor Date Temp./Hum.
h3-hermonville 29-08-2026 - 23:59 19.5°C / 84.5%
h4-hermonville 29-08-2026 - 23:58 19.4°C / 83.5%
h1-hermonville 29-08-2026 - 23:53 19.3°C / 85.5%
h2-hermonville 29-08-2026 - 23:53 19.4°C / 84.5%
h3-hermonville 29-08-2026 - 23:49 19.4°C / 84.5%
h4-hermonville 29-08-2026 - 23:48 19.5°C / 83.5%
h1-hermonville 29-08-2026 - 23:43 19.4°C / 85.5%
h2-hermonville 29-08-2026 - 23:43 19.4°C / 85%
h3-hermonville 29-08-2026 - 23:39 19.5°C / 84.5%
h4-hermonville 29-08-2026 - 23:38 19.5°C / 83.5%
h1-hermonville 29-08-2026 - 23:33 19.4°C / 85.5%
h2-hermonville 29-08-2026 - 23:33 19.5°C / 85%
h3-hermonville 29-08-2026 - 23:29 19.4°C / 84%
h4-hermonville 29-08-2026 - 23:28 19.4°C / 83.5%
h1-hermonville 29-08-2026 - 23:23 19.4°C / 85.5%
h2-hermonville 29-08-2026 - 23:23 19.5°C / 84.5%
h3-hermonville 29-08-2026 - 23:19 19.5°C / 84%
h4-hermonville 29-08-2026 - 23:18 19.4°C / 83.5%
h1-hermonville 29-08-2026 - 23:13 19.4°C / 85%
h2-hermonville 29-08-2026 - 23:13 19.6°C / 84.5%
h3-hermonville 29-08-2026 - 23:09 19.6°C / 84%
h4-hermonville 29-08-2026 - 23:08 19.3°C / 83.5%
h1-hermonville 29-08-2026 - 23:03 19.4°C / 85.5%
h2-hermonville 29-08-2026 - 23:03 19.5°C / 85%
h3-hermonville 29-08-2026 - 22:59 19.5°C / 84.5%
h4-hermonville 29-08-2026 - 22:58 19.4°C / 84%
h3-hermonville 29-08-2026 - 22:49 19.5°C / 84.5%
h4-hermonville 29-08-2026 - 22:48 19.5°C / 84%
h1-hermonville 29-08-2026 - 22:43 19.5°C / 85.5%
h2-hermonville 29-08-2026 - 22:43 19.5°C / 85.5%
h3-hermonville 29-08-2026 - 22:39 19.5°C / 85%
h4-hermonville 29-08-2026 - 22:38 19.4°C / 84%
h1-hermonville 29-08-2026 - 22:33 19.4°C / 85.5%
h3-hermonville 29-08-2026 - 22:29 19.4°C / 85.5%
h4-hermonville 29-08-2026 - 22:28 19.5°C / 84.5%
h3-hermonville 29-08-2026 - 22:19 19.5°C / 85.5%
h4-hermonville 29-08-2026 - 22:18 19.4°C / 84.5%
h2-hermonville 29-08-2026 - 22:13 19.4°C / 86%
h1-hermonville 29-08-2026 - 22:13 19.3°C / 86.5%
h3-hermonville 29-08-2026 - 22:09 19.4°C / 85.5%
h4-hermonville 29-08-2026 - 22:08 19.3°C / 84.5%
h1-hermonville 29-08-2026 - 22:03 19.3°C / 86%
h2-hermonville 29-08-2026 - 22:03 19.4°C / 86%
h3-hermonville 29-08-2026 - 21:59 19.4°C / 85.5%
h1-hermonville 29-08-2026 - 21:53 19.3°C / 86%
h2-hermonville 29-08-2026 - 21:53 19.4°C / 85.5%
h3-hermonville 29-08-2026 - 21:49 19.4°C / 85%
h4-hermonville 29-08-2026 - 21:48 19.4°C / 84.5%
h1-hermonville 29-08-2026 - 21:43 19.3°C / 86%
h3-hermonville 29-08-2026 - 21:39 19.3°C / 85%
h4-hermonville 29-08-2026 - 21:38 19.3°C / 84.5%
h1-hermonville 29-08-2026 - 21:33 19.2°C / 86%
h2-hermonville 29-08-2026 - 21:33 19.3°C / 85.5%
h3-hermonville 29-08-2026 - 21:29 19.2°C / 85.5%
h4-hermonville 29-08-2026 - 21:28 19.3°C / 84.5%
h1-hermonville 29-08-2026 - 21:23 19.2°C / 86.5%
h2-hermonville 29-08-2026 - 21:23 19.2°C / 86%
h3-hermonville 29-08-2026 - 21:19 19.2°C / 85.5%
h4-hermonville 29-08-2026 - 21:18 19.2°C / 84.5%
h1-hermonville 29-08-2026 - 21:13 19.1°C / 86%
h2-hermonville 29-08-2026 - 21:13 19.2°C / 86%
h3-hermonville 29-08-2026 - 21:09 19.2°C / 85.5%
h4-hermonville 29-08-2026 - 21:08 19.2°C / 84%
h1-hermonville 29-08-2026 - 21:03 19.1°C / 86%
h3-hermonville 29-08-2026 - 20:59 19.1°C / 86%
h4-hermonville 29-08-2026 - 20:58 19.1°C / 84%
h1-hermonville 29-08-2026 - 20:53 19.2°C / 86.5%
h3-hermonville 29-08-2026 - 20:49 19°C / 85.5%
h4-hermonville 29-08-2026 - 20:48 19.2°C / 84%
h1-hermonville 29-08-2026 - 20:43 19°C / 86%
h3-hermonville 29-08-2026 - 20:39 19.1°C / 85.5%
h4-hermonville 29-08-2026 - 20:38 19.2°C / 84%
h1-hermonville 29-08-2026 - 20:33 19.1°C / 86%
h2-hermonville 29-08-2026 - 20:33 19.1°C / 85.5%
h4-hermonville 29-08-2026 - 20:28 19.3°C / 84%
h1-hermonville 29-08-2026 - 20:23 19.2°C / 86%
h3-hermonville 29-08-2026 - 20:19 19°C / 86%
h4-hermonville 29-08-2026 - 20:18 19.3°C / 84%
h1-hermonville 29-08-2026 - 20:13 19.2°C / 86.5%
h2-hermonville 29-08-2026 - 20:13 19.2°C / 86%
h3-hermonville 29-08-2026 - 20:09 19°C / 86%
h4-hermonville 29-08-2026 - 20:08 19.4°C / 84%
h1-hermonville 29-08-2026 - 20:03 19.3°C / 86.5%
h2-hermonville 29-08-2026 - 20:03 19.4°C / 86%
h3-hermonville 29-08-2026 - 19:59 19.1°C / 86.5%
h4-hermonville 29-08-2026 - 19:58 19.4°C / 83.5%
h1-hermonville 29-08-2026 - 19:53 19.4°C / 85.5%
h2-hermonville 29-08-2026 - 19:53 19.5°C / 85.5%
h3-hermonville 29-08-2026 - 19:49 19.3°C / 85.5%
h4-hermonville 29-08-2026 - 19:48 19.6°C / 83.5%
h1-hermonville 29-08-2026 - 19:43 19.5°C / 86%
h2-hermonville 29-08-2026 - 19:43 19.6°C / 85.5%
h3-hermonville 29-08-2026 - 19:39 19.3°C / 86%
h4-hermonville 29-08-2026 - 19:38 19.6°C / 84%
h2-hermonville 29-08-2026 - 19:33 19.5°C / 86%
h3-hermonville 29-08-2026 - 19:29 19.3°C / 87%
h1-hermonville 29-08-2026 - 19:23 19.6°C / 87%
h2-hermonville 29-08-2026 - 19:23 19.7°C / 86.5%
h3-hermonville 29-08-2026 - 19:19 19.3°C / 88.5%
h4-hermonville 29-08-2026 - 19:18 19.6°C / 85%
h1-hermonville 29-08-2026 - 19:13 19.6°C / 86.5%
h2-hermonville 29-08-2026 - 19:13 19.4°C / 87%
h3-hermonville 29-08-2026 - 19:09 19.4°C / 87%
h4-hermonville 29-08-2026 - 19:08 19.8°C / 84.5%
h1-hermonville 29-08-2026 - 19:03 19.7°C / 86.5%
h2-hermonville 29-08-2026 - 19:03 19.5°C / 87%
h3-hermonville 29-08-2026 - 18:59 19.4°C / 87%
h4-hermonville 29-08-2026 - 18:58 19.7°C / 84.5%
h1-hermonville 29-08-2026 - 18:53 19.6°C / 86.5%
h2-hermonville 29-08-2026 - 18:53 19.5°C / 86.5%
h3-hermonville 29-08-2026 - 18:49 19.4°C / 87%
h4-hermonville 29-08-2026 - 18:48 19.7°C / 84%
h1-hermonville 29-08-2026 - 18:43 19.7°C / 86.5%
h2-hermonville 29-08-2026 - 18:43 19.6°C / 87%
h3-hermonville 29-08-2026 - 18:39 19.5°C / 86.5%
h4-hermonville 29-08-2026 - 18:38 19.7°C / 84.5%
h1-hermonville 29-08-2026 - 18:33 19.7°C / 86%
h2-hermonville 29-08-2026 - 18:33 19.5°C / 87%
h3-hermonville 29-08-2026 - 18:29 19.4°C / 87.5%
h4-hermonville 29-08-2026 - 18:28 19.8°C / 85%
h1-hermonville 29-08-2026 - 18:23 19.6°C / 88.5%
h2-hermonville 29-08-2026 - 18:23 19.2°C / 90%
h3-hermonville 29-08-2026 - 18:19 19.1°C / 90%
h4-hermonville 29-08-2026 - 18:18 19.6°C / 86%
h1-hermonville 29-08-2026 - 18:13 19.4°C / 88.5%
h2-hermonville 29-08-2026 - 18:13 19°C / 90.5%
h3-hermonville 29-08-2026 - 18:09 19°C / 91%
h4-hermonville 29-08-2026 - 18:08 19.6°C / 86%
h1-hermonville 29-08-2026 - 18:03 19.4°C / 88.5%
h2-hermonville 29-08-2026 - 18:03 19°C / 91.5%
h3-hermonville 29-08-2026 - 17:59 18.9°C / 91%
h4-hermonville 29-08-2026 - 17:58 19.7°C / 86.5%
h1-hermonville 29-08-2026 - 17:53 19.5°C / 88.5%
h2-hermonville 29-08-2026 - 17:53 19°C / 91.5%
h3-hermonville 29-08-2026 - 17:49 19°C / 91%
h2-hermonville 29-08-2026 - 17:43 18.9°C / 91%
h1-hermonville 29-08-2026 - 17:43 19.4°C / 88%
h3-hermonville 29-08-2026 - 17:39 18.9°C / 90%
h4-hermonville 29-08-2026 - 17:38 19.7°C / 84.5%
h1-hermonville 29-08-2026 - 17:33 19.6°C / 87%
h2-hermonville 29-08-2026 - 17:33 19.1°C / 89.5%
h3-hermonville 29-08-2026 - 17:29 19.2°C / 88%
h4-hermonville 29-08-2026 - 17:28 19.9°C / 83.5%
h2-hermonville 29-08-2026 - 17:23 19.5°C / 88%
h3-hermonville 29-08-2026 - 17:19 19.5°C / 87%
h4-hermonville 29-08-2026 - 17:18 20°C / 82.5%
h1-hermonville 29-08-2026 - 17:13 20°C / 84.5%
h2-hermonville 29-08-2026 - 17:13 19.8°C / 85%
h3-hermonville 29-08-2026 - 17:09 19.8°C / 84.5%
h4-hermonville 29-08-2026 - 17:08 20.1°C / 81.5%
h1-hermonville 29-08-2026 - 17:03 20.1°C / 83.5%
h2-hermonville 29-08-2026 - 17:03 20.1°C / 83.5%
h4-hermonville 29-08-2026 - 16:58 20.3°C / 81%
h1-hermonville 29-08-2026 - 16:53 20.2°C / 83.5%
h2-hermonville 29-08-2026 - 16:53 20.3°C / 83%
h3-hermonville 29-08-2026 - 16:49 20°C / 84%
h4-hermonville 29-08-2026 - 16:48 20.4°C / 81%
h1-hermonville 29-08-2026 - 16:43 20.1°C / 83%
h2-hermonville 29-08-2026 - 16:43 20°C / 83%
h3-hermonville 29-08-2026 - 16:39 19.8°C / 83.5%
h4-hermonville 29-08-2026 - 16:38 20.1°C / 81%
h1-hermonville 29-08-2026 - 16:33 20°C / 83.5%
h2-hermonville 29-08-2026 - 16:33 20.2°C / 84%
h3-hermonville 29-08-2026 - 16:29 19.4°C / 84%
h1-hermonville 29-08-2026 - 16:23 19.8°C / 82.5%
h2-hermonville 29-08-2026 - 16:23 19.4°C / 84.5%
h3-hermonville 29-08-2026 - 16:19 19.3°C / 83.5%
h1-hermonville 29-08-2026 - 16:13 20°C / 80.5%
h2-hermonville 29-08-2026 - 16:13 19.7°C / 82%
h3-hermonville 29-08-2026 - 16:09 20°C / 79.5%
h4-hermonville 29-08-2026 - 16:08 20.3°C / 77%
h1-hermonville 29-08-2026 - 16:03 20.2°C / 78.5%
h2-hermonville 29-08-2026 - 16:03 20.1°C / 79%
h3-hermonville 29-08-2026 - 15:59 20.2°C / 78%
h4-hermonville 29-08-2026 - 15:58 20.5°C / 76.5%
h1-hermonville 29-08-2026 - 15:53 20.5°C / 77%
h2-hermonville 29-08-2026 - 15:53 20.5°C / 77.5%
h3-hermonville 29-08-2026 - 15:49 20.4°C / 77%
h4-hermonville 29-08-2026 - 15:48 20.7°C / 74.5%
h1-hermonville 29-08-2026 - 15:43 20.6°C / 76%
h2-hermonville 29-08-2026 - 15:43 20.6°C / 75.5%
h3-hermonville 29-08-2026 - 15:39 20.4°C / 76%
h1-hermonville 29-08-2026 - 15:33 20.7°C / 76%
h2-hermonville 29-08-2026 - 15:33 20.6°C / 75.5%
h3-hermonville 29-08-2026 - 15:29 20.5°C / 75%
h4-hermonville 29-08-2026 - 15:28 20.6°C / 73.5%
h1-hermonville 29-08-2026 - 15:23 20.7°C / 76%
h3-hermonville 29-08-2026 - 15:19 20.2°C / 76%
h4-hermonville 29-08-2026 - 15:18 20.6°C / 74%
h2-hermonville 29-08-2026 - 15:13 20.3°C / 77%
h1-hermonville 29-08-2026 - 15:13 20.4°C / 77%
h3-hermonville 29-08-2026 - 15:09 20.5°C / 75%
h4-hermonville 29-08-2026 - 15:08 20.7°C / 73.5%
h1-hermonville 29-08-2026 - 15:03 20.7°C / 74.5%
h2-hermonville 29-08-2026 - 15:03 20.7°C / 74%
h3-hermonville 29-08-2026 - 14:59 20.8°C / 73.5%
h4-hermonville 29-08-2026 - 14:58 20.8°C / 72.5%
h1-hermonville 29-08-2026 - 14:53 21.1°C / 72.5%
h3-hermonville 29-08-2026 - 14:49 21.3°C / 71.5%
h4-hermonville 29-08-2026 - 14:48 21°C / 72%
h1-hermonville 29-08-2026 - 14:43 21.1°C / 74.5%
h2-hermonville 29-08-2026 - 14:43 21.3°C / 73.5%
h3-hermonville 29-08-2026 - 14:39 21.3°C / 73.5%
h4-hermonville 29-08-2026 - 14:38 21°C / 73.5%
h1-hermonville 29-08-2026 - 14:33 21.1°C / 75.5%
h2-hermonville 29-08-2026 - 14:33 21.3°C / 74.5%
h3-hermonville 29-08-2026 - 14:29 21.1°C / 74.5%
h4-hermonville 29-08-2026 - 14:28 20.9°C / 74%
h1-hermonville 29-08-2026 - 14:23 20.9°C / 77%
h2-hermonville 29-08-2026 - 14:23 21.1°C / 76.5%
h3-hermonville 29-08-2026 - 14:19 20.8°C / 76.5%
h4-hermonville 29-08-2026 - 14:18 20.9°C / 75.5%
h1-hermonville 29-08-2026 - 14:13 20.6°C / 77.5%
h3-hermonville 29-08-2026 - 14:09 20.6°C / 76.5%
h4-hermonville 29-08-2026 - 14:08 20.7°C / 75.5%
h1-hermonville 29-08-2026 - 14:03 20.5°C / 78%
h3-hermonville 29-08-2026 - 13:59 20.3°C / 77.5%
h4-hermonville 29-08-2026 - 13:58 20.3°C / 76.5%
h1-hermonville 29-08-2026 - 13:53 20.2°C / 79%
h2-hermonville 29-08-2026 - 13:53 20.3°C / 78.5%
h3-hermonville 29-08-2026 - 13:49 20.1°C / 79%
h4-hermonville 29-08-2026 - 13:48 20.1°C / 77.5%
h1-hermonville 29-08-2026 - 13:43 20.1°C / 79.5%
h2-hermonville 29-08-2026 - 13:43 20°C / 79.5%
h3-hermonville 29-08-2026 - 13:39 19.8°C / 80%
h4-hermonville 29-08-2026 - 13:38 20°C / 78.5%
h1-hermonville 29-08-2026 - 13:33 19.7°C / 80.5%
h2-hermonville 29-08-2026 - 13:33 19.7°C / 80.5%
h3-hermonville 29-08-2026 - 13:29 19.5°C / 81.5%
h4-hermonville 29-08-2026 - 13:28 19.6°C / 80%
h1-hermonville 29-08-2026 - 13:23 19.6°C / 82%
h2-hermonville 29-08-2026 - 13:23 19.4°C / 82%
h3-hermonville 29-08-2026 - 13:19 19.2°C / 82.5%
h4-hermonville 29-08-2026 - 13:18 19.5°C / 80.5%
h1-hermonville 29-08-2026 - 13:13 19.3°C / 83%
h2-hermonville 29-08-2026 - 13:13 19.2°C / 83.5%
h3-hermonville 29-08-2026 - 13:09 19°C / 84%
h4-hermonville 29-08-2026 - 13:08 19.3°C / 81%
h1-hermonville 29-08-2026 - 13:03 19.4°C / 82.5%
h3-hermonville 29-08-2026 - 12:59 18.8°C / 84%
h4-hermonville 29-08-2026 - 12:58 19.4°C / 80.5%
h1-hermonville 29-08-2026 - 12:53 19.2°C / 83%
h2-hermonville 29-08-2026 - 12:53 19°C / 84%
h3-hermonville 29-08-2026 - 12:49 18.6°C / 85%
h4-hermonville 29-08-2026 - 12:48 19.2°C / 81%
h1-hermonville 29-08-2026 - 12:43 18.9°C / 83.5%
h2-hermonville 29-08-2026 - 12:43 18.6°C / 85%
h3-hermonville 29-08-2026 - 12:39 18.5°C / 85%
h4-hermonville 29-08-2026 - 12:38 19°C / 81%
h1-hermonville 29-08-2026 - 12:33 18.9°C / 83%
h2-hermonville 29-08-2026 - 12:33 18.6°C / 84%
h3-hermonville 29-08-2026 - 12:29 18.5°C / 84.5%
h4-hermonville 29-08-2026 - 12:28 19°C / 81%
h1-hermonville 29-08-2026 - 12:23 18.9°C / 83%
h2-hermonville 29-08-2026 - 12:23 18.7°C / 83.5%
h3-hermonville 29-08-2026 - 12:19 18.5°C / 84.5%
h4-hermonville 29-08-2026 - 12:18 19°C / 80%
h1-hermonville 29-08-2026 - 12:13 18.9°C / 82%
h2-hermonville 29-08-2026 - 12:13 18.7°C / 83%
h3-hermonville 29-08-2026 - 12:09 18.6°C / 83%
h4-hermonville 29-08-2026 - 12:08 19°C / 79.5%
h1-hermonville 29-08-2026 - 12:03 18.9°C / 82%
h2-hermonville 29-08-2026 - 12:03 18.7°C / 83%
h3-hermonville 29-08-2026 - 11:59 18.5°C / 83.5%
h4-hermonville 29-08-2026 - 11:58 19°C / 79.5%
h1-hermonville 29-08-2026 - 11:53 18.6°C / 82.5%
h2-hermonville 29-08-2026 - 11:53 18.5°C / 83%
h3-hermonville 29-08-2026 - 11:49 18.3°C / 84%
h1-hermonville 29-08-2026 - 11:43 18.6°C / 82.5%
h2-hermonville 29-08-2026 - 11:43 18.5°C / 83.5%
h4-hermonville 29-08-2026 - 11:38 18.8°C / 79.5%
h1-hermonville 29-08-2026 - 11:33 18.4°C / 82.5%
h2-hermonville 29-08-2026 - 11:33 18.2°C / 84%
h3-hermonville 29-08-2026 - 11:29 17.8°C / 85%
h4-hermonville 29-08-2026 - 11:28 18.6°C / 80%
h1-hermonville 29-08-2026 - 11:23 18.3°C / 83%
h2-hermonville 29-08-2026 - 11:23 18°C / 84.5%
h3-hermonville 29-08-2026 - 11:19 17.5°C / 86%
h4-hermonville 29-08-2026 - 11:18 18.6°C / 79%
h1-hermonville 29-08-2026 - 11:13 18.3°C / 83%
h3-hermonville 29-08-2026 - 11:09 17.4°C / 87%
h4-hermonville 29-08-2026 - 11:08 18.8°C / 78.5%
h1-hermonville 29-08-2026 - 11:03 18.4°C / 82.5%
h2-hermonville 29-08-2026 - 11:03 17.8°C / 85%
h3-hermonville 29-08-2026 - 10:59 17.5°C / 86.5%
h4-hermonville 29-08-2026 - 10:58 18.8°C / 78.5%
h1-hermonville 29-08-2026 - 10:53 18.4°C / 81.5%
h3-hermonville 29-08-2026 - 10:49 17.7°C / 83.5%
h4-hermonville 29-08-2026 - 10:48 18.9°C / 76%
h1-hermonville 29-08-2026 - 10:43 18.5°C / 79.5%
h3-hermonville 29-08-2026 - 10:39 17.9°C / 81%
h4-hermonville 29-08-2026 - 10:38 19.2°C / 74.5%
h1-hermonville 29-08-2026 - 10:33 18.5°C / 78.5%
h2-hermonville 29-08-2026 - 10:33 18.3°C / 79.5%
h3-hermonville 29-08-2026 - 10:29 18.1°C / 79.5%
h4-hermonville 29-08-2026 - 10:28 19.6°C / 72.5%
h1-hermonville 29-08-2026 - 10:23 18.7°C / 78%
h2-hermonville 29-08-2026 - 10:23 18.4°C / 78.5%
h3-hermonville 29-08-2026 - 10:19 18.4°C / 78.5%
h4-hermonville 29-08-2026 - 10:18 20.3°C / 69.5%
h2-hermonville 29-08-2026 - 10:13 18.7°C / 77.5%
h3-hermonville 29-08-2026 - 10:09 18.5°C / 78%
h4-hermonville 29-08-2026 - 10:08 21.9°C / 64%
h1-hermonville 29-08-2026 - 10:03 18.8°C / 77%
h2-hermonville 29-08-2026 - 10:03 18.6°C / 78%
h3-hermonville 29-08-2026 - 09:59 18.6°C / 76.5%
h4-hermonville 29-08-2026 - 09:58 23.5°C / 59.5%
h1-hermonville 29-08-2026 - 09:53 18.8°C / 76%
h2-hermonville 29-08-2026 - 09:53 18.5°C / 77.5%
h3-hermonville 29-08-2026 - 09:49 18.6°C / 77%
h4-hermonville 29-08-2026 - 09:48 22.8°C / 62%
h1-hermonville 29-08-2026 - 09:43 18.4°C / 76%
h3-hermonville 29-08-2026 - 09:39 18.4°C / 76.5%
h4-hermonville 29-08-2026 - 09:38 21.4°C / 65%
h1-hermonville 29-08-2026 - 09:33 18.5°C / 76.5%
h2-hermonville 29-08-2026 - 09:33 18.3°C / 77%
h3-hermonville 29-08-2026 - 09:29 18.3°C / 76%
h1-hermonville 29-08-2026 - 09:23 18.3°C / 77.5%
h2-hermonville 29-08-2026 - 09:23 17.9°C / 78.5%
h3-hermonville 29-08-2026 - 09:19 17.8°C / 79%
h4-hermonville 29-08-2026 - 09:18 21°C / 65.5%
h1-hermonville 29-08-2026 - 09:13 18.1°C / 78%
h2-hermonville 29-08-2026 - 09:13 17.7°C / 79%
h3-hermonville 29-08-2026 - 09:09 17.6°C / 80.5%
h4-hermonville 29-08-2026 - 09:08 20.7°C / 70%
h1-hermonville 29-08-2026 - 09:03 17.9°C / 78.5%
h3-hermonville 29-08-2026 - 08:59 17.3°C / 81.5%
h4-hermonville 29-08-2026 - 08:58 20.6°C / 69%
h1-hermonville 29-08-2026 - 08:53 17.8°C / 80%
h2-hermonville 29-08-2026 - 08:53 17.3°C / 81%
h3-hermonville 29-08-2026 - 08:49 17°C / 82.5%
h4-hermonville 29-08-2026 - 08:48 18.8°C / 75%
h1-hermonville 29-08-2026 - 08:43 17.5°C / 80.5%
h2-hermonville 29-08-2026 - 08:43 17.2°C / 82%
h3-hermonville 29-08-2026 - 08:39 16.7°C / 83%
h4-hermonville 29-08-2026 - 08:38 18.5°C / 74.5%
h1-hermonville 29-08-2026 - 08:33 17.4°C / 80.5%
h2-hermonville 29-08-2026 - 08:33 16.9°C / 82%
h3-hermonville 29-08-2026 - 08:29 16.6°C / 83.5%
h4-hermonville 29-08-2026 - 08:28 19.3°C / 72.5%
h1-hermonville 29-08-2026 - 08:23 17.3°C / 81%
h2-hermonville 29-08-2026 - 08:23 16.8°C / 83%
h3-hermonville 29-08-2026 - 08:19 16.4°C / 83.5%
h4-hermonville 29-08-2026 - 08:18 17.9°C / 76.5%
h1-hermonville 29-08-2026 - 08:13 17.1°C / 81%
h2-hermonville 29-08-2026 - 08:13 16.8°C / 83%
h3-hermonville 29-08-2026 - 08:09 16.4°C / 83.5%
h4-hermonville 29-08-2026 - 08:08 18.2°C / 75.5%
h1-hermonville 29-08-2026 - 08:03 17°C / 81.5%
h2-hermonville 29-08-2026 - 08:03 16.6°C / 83.5%
h3-hermonville 29-08-2026 - 07:59 16.3°C / 85%
h4-hermonville 29-08-2026 - 07:58 17.6°C / 78.5%
h1-hermonville 29-08-2026 - 07:53 16.8°C / 82.5%
h2-hermonville 29-08-2026 - 07:53 16.3°C / 84.5%
h3-hermonville 29-08-2026 - 07:49 16.1°C / 85.5%
h1-hermonville 29-08-2026 - 07:43 16.6°C / 83%
h2-hermonville 29-08-2026 - 07:43 16.2°C / 85%
h3-hermonville 29-08-2026 - 07:39 15.9°C / 85.5%
h4-hermonville 29-08-2026 - 07:38 16.8°C / 80.5%
h1-hermonville 29-08-2026 - 07:33 16.5°C / 83%
h2-hermonville 29-08-2026 - 07:33 16°C / 85.5%
h3-hermonville 29-08-2026 - 07:29 16°C / 86%
h4-hermonville 29-08-2026 - 07:28 16.7°C / 81%
h1-hermonville 29-08-2026 - 07:23 16.5°C / 83%
h2-hermonville 29-08-2026 - 07:23 16.1°C / 85.5%
h3-hermonville 29-08-2026 - 07:19 15.8°C / 85.5%
h4-hermonville 29-08-2026 - 07:18 16.6°C / 81%
h1-hermonville 29-08-2026 - 07:13 16.5°C / 83%
h2-hermonville 29-08-2026 - 07:13 16°C / 85.5%
h3-hermonville 29-08-2026 - 07:09 15.8°C / 86%
h4-hermonville 29-08-2026 - 07:08 16.5°C / 81.5%
h1-hermonville 29-08-2026 - 07:03 16.4°C / 83.5%
h2-hermonville 29-08-2026 - 07:03 15.9°C / 85.5%
h3-hermonville 29-08-2026 - 06:59 15.9°C / 86%
h4-hermonville 29-08-2026 - 06:58 16.4°C / 81.5%
h1-hermonville 29-08-2026 - 06:53 16.4°C / 83.5%
h2-hermonville 29-08-2026 - 06:53 16°C / 85.5%
h3-hermonville 29-08-2026 - 06:49 15.7°C / 86%
h4-hermonville 29-08-2026 - 06:48 16.5°C / 81.5%
h1-hermonville 29-08-2026 - 06:43 16.3°C / 83.5%
h2-hermonville 29-08-2026 - 06:43 15.9°C / 85.5%
h3-hermonville 29-08-2026 - 06:39 15.8°C / 86%
h4-hermonville 29-08-2026 - 06:38 16.4°C / 81.5%
h1-hermonville 29-08-2026 - 06:33 16.5°C / 83.5%
h2-hermonville 29-08-2026 - 06:33 16°C / 85.5%
h3-hermonville 29-08-2026 - 06:29 15.7°C / 86%
h4-hermonville 29-08-2026 - 06:28 16.4°C / 81.5%
h1-hermonville 29-08-2026 - 06:23 16.3°C / 83.5%
h2-hermonville 29-08-2026 - 06:23 16°C / 85.5%
h3-hermonville 29-08-2026 - 06:19 15.7°C / 86%
h4-hermonville 29-08-2026 - 06:18 16.4°C / 81.5%
h1-hermonville 29-08-2026 - 06:13 16.5°C / 83.5%
h3-hermonville 29-08-2026 - 06:09 15.8°C / 86%
h4-hermonville 29-08-2026 - 06:08 16.4°C / 81.5%
h1-hermonville 29-08-2026 - 06:03 16.4°C / 83.5%
h2-hermonville 29-08-2026 - 06:03 15.9°C / 85%
h3-hermonville 29-08-2026 - 05:59 15.7°C / 85.5%
h4-hermonville 29-08-2026 - 05:58 16.4°C / 81%
h1-hermonville 29-08-2026 - 05:53 16.5°C / 82.5%
h2-hermonville 29-08-2026 - 05:53 16°C / 85%
h3-hermonville 29-08-2026 - 05:49 15.7°C / 85.5%
h1-hermonville 29-08-2026 - 05:43 16.5°C / 83%
h2-hermonville 29-08-2026 - 05:43 16°C / 85%
h3-hermonville 29-08-2026 - 05:39 15.8°C / 85.5%
h4-hermonville 29-08-2026 - 05:38 16.6°C / 81%
h1-hermonville 29-08-2026 - 05:33 16.5°C / 83%
h3-hermonville 29-08-2026 - 05:29 15.9°C / 85.5%
h1-hermonville 29-08-2026 - 05:23 16.6°C / 83%
h2-hermonville 29-08-2026 - 05:23 16.1°C / 84.5%
h3-hermonville 29-08-2026 - 05:19 15.8°C / 85%
h4-hermonville 29-08-2026 - 05:18 16.6°C / 80.5%
h1-hermonville 29-08-2026 - 05:13 16.5°C / 82.5%
h3-hermonville 29-08-2026 - 05:09 15.9°C / 84.5%
h4-hermonville 29-08-2026 - 05:08 16.6°C / 80.5%
h1-hermonville 29-08-2026 - 05:03 16.6°C / 82.5%
h2-hermonville 29-08-2026 - 05:03 16.1°C / 84%
h3-hermonville 29-08-2026 - 04:59 16°C / 84.5%
h4-hermonville 29-08-2026 - 04:58 16.7°C / 80%
h1-hermonville 29-08-2026 - 04:53 16.6°C / 82.5%
h2-hermonville 29-08-2026 - 04:53 16.2°C / 84%
h3-hermonville 29-08-2026 - 04:49 15.9°C / 84.5%
h4-hermonville 29-08-2026 - 04:48 16.7°C / 80%
h2-hermonville 29-08-2026 - 04:43 16.2°C / 83.5%
h1-hermonville 29-08-2026 - 04:43 16.6°C / 82%
h3-hermonville 29-08-2026 - 04:39 16.1°C / 84%
h4-hermonville 29-08-2026 - 04:38 16.8°C / 79.5%
h1-hermonville 29-08-2026 - 04:33 16.6°C / 81.5%
h2-hermonville 29-08-2026 - 04:33 16.3°C / 83%
h3-hermonville 29-08-2026 - 04:29 16.1°C / 83.5%
h4-hermonville 29-08-2026 - 04:28 16.8°C / 79.5%
h1-hermonville 29-08-2026 - 04:23 16.8°C / 81.5%
h2-hermonville 29-08-2026 - 04:23 16.4°C / 83%
h3-hermonville 29-08-2026 - 04:19 16.2°C / 83.5%
h4-hermonville 29-08-2026 - 04:18 16.9°C / 79%
h1-hermonville 29-08-2026 - 04:13 16.9°C / 81%
h2-hermonville 29-08-2026 - 04:13 16.5°C / 82.5%
h3-hermonville 29-08-2026 - 04:09 16.3°C / 83%
h2-hermonville 29-08-2026 - 04:03 16.5°C / 82.5%
h1-hermonville 29-08-2026 - 04:03 16.8°C / 81%
h3-hermonville 29-08-2026 - 03:59 16.3°C / 83%
h4-hermonville 29-08-2026 - 03:58 16.9°C / 79%
h1-hermonville 29-08-2026 - 03:53 16.9°C / 81%
h2-hermonville 29-08-2026 - 03:53 16.5°C / 82.5%
h3-hermonville 29-08-2026 - 03:49 16.3°C / 83%
h4-hermonville 29-08-2026 - 03:48 17°C / 79%
h1-hermonville 29-08-2026 - 03:43 16.9°C / 80.5%
h2-hermonville 29-08-2026 - 03:43 16.6°C / 82%
h3-hermonville 29-08-2026 - 03:39 16.4°C / 82.5%
h4-hermonville 29-08-2026 - 03:38 17.2°C / 79%
h2-hermonville 29-08-2026 - 03:33 16.7°C / 82%
h1-hermonville 29-08-2026 - 03:33 17°C / 81%
h3-hermonville 29-08-2026 - 03:29 16.5°C / 82.5%
h4-hermonville 29-08-2026 - 03:28 17.1°C / 79%
h1-hermonville 29-08-2026 - 03:23 16.9°C / 81%
h2-hermonville 29-08-2026 - 03:23 16.7°C / 82%
h3-hermonville 29-08-2026 - 03:19 16.7°C / 82.5%
h4-hermonville 29-08-2026 - 03:18 17.1°C / 78.5%
h1-hermonville 29-08-2026 - 03:13 17°C / 81%
h2-hermonville 29-08-2026 - 03:13 16.7°C / 82%
h3-hermonville 29-08-2026 - 03:09 16.6°C / 82%
h4-hermonville 29-08-2026 - 03:08 17.2°C / 78.5%
h1-hermonville 29-08-2026 - 03:03 17.1°C / 80.5%
h2-hermonville 29-08-2026 - 03:03 16.7°C / 81.5%
h3-hermonville 29-08-2026 - 02:59 16.7°C / 82%
h4-hermonville 29-08-2026 - 02:58 17.3°C / 78.5%
h1-hermonville 29-08-2026 - 02:53 17.2°C / 80.5%
h2-hermonville 29-08-2026 - 02:53 16.9°C / 81.5%
h3-hermonville 29-08-2026 - 02:49 16.8°C / 82%
h4-hermonville 29-08-2026 - 02:48 17.3°C / 78.5%
h1-hermonville 29-08-2026 - 02:43 17.2°C / 80.5%
h2-hermonville 29-08-2026 - 02:43 16.9°C / 81.5%
h3-hermonville 29-08-2026 - 02:39 16.8°C / 82.5%
h4-hermonville 29-08-2026 - 02:38 17.4°C / 78.5%
h1-hermonville 29-08-2026 - 02:33 17.3°C / 81%
h2-hermonville 29-08-2026 - 02:33 17°C / 82%
h3-hermonville 29-08-2026 - 02:29 16.8°C / 82.5%
h4-hermonville 29-08-2026 - 02:28 17.4°C / 79%
h1-hermonville 29-08-2026 - 02:23 17.2°C / 81%
h2-hermonville 29-08-2026 - 02:23 16.9°C / 82%
h3-hermonville 29-08-2026 - 02:19 16.9°C / 82.5%
h4-hermonville 29-08-2026 - 02:18 17.5°C / 79%
h1-hermonville 29-08-2026 - 02:13 17.3°C / 81.5%
h2-hermonville 29-08-2026 - 02:13 17°C / 82.5%
h3-hermonville 29-08-2026 - 02:09 16.9°C / 83%
h4-hermonville 29-08-2026 - 02:08 17.6°C / 79%
h1-hermonville 29-08-2026 - 02:03 17.5°C / 81.5%
h3-hermonville 29-08-2026 - 01:59 17°C / 83%
h4-hermonville 29-08-2026 - 01:58 17.5°C / 79%
h1-hermonville 29-08-2026 - 01:53 17.5°C / 81.5%
h2-hermonville 29-08-2026 - 01:53 17.1°C / 82.5%
h3-hermonville 29-08-2026 - 01:49 16.9°C / 83%
h4-hermonville 29-08-2026 - 01:48 17.5°C / 79.5%
h1-hermonville 29-08-2026 - 01:43 17.4°C / 82%
h2-hermonville 29-08-2026 - 01:43 17.2°C / 83%
h3-hermonville 29-08-2026 - 01:39 17°C / 83.5%
h4-hermonville 29-08-2026 - 01:38 17.6°C / 79.5%
h2-hermonville 29-08-2026 - 01:33 17.1°C / 83%
h3-hermonville 29-08-2026 - 01:29 16.9°C / 83.5%
h4-hermonville 29-08-2026 - 01:28 17.5°C / 79.5%
h1-hermonville 29-08-2026 - 01:23 17.4°C / 82%
h3-hermonville 29-08-2026 - 01:19 16.9°C / 84%
h4-hermonville 29-08-2026 - 01:18 17.6°C / 79.5%
h1-hermonville 29-08-2026 - 01:13 17.4°C / 82%
h2-hermonville 29-08-2026 - 01:13 17.1°C / 83%
h3-hermonville 29-08-2026 - 01:09 16.9°C / 84%
h4-hermonville 29-08-2026 - 01:08 17.6°C / 79.5%
h1-hermonville 29-08-2026 - 01:03 17.4°C / 82%
h2-hermonville 29-08-2026 - 01:03 17.1°C / 83%
h3-hermonville 29-08-2026 - 00:59 17°C / 83.5%
h4-hermonville 29-08-2026 - 00:58 17.7°C / 79.5%
h1-hermonville 29-08-2026 - 00:53 17.4°C / 82%
h2-hermonville 29-08-2026 - 00:53 17.1°C / 83%
h3-hermonville 29-08-2026 - 00:49 16.9°C / 83.5%
h4-hermonville 29-08-2026 - 00:48 17.5°C / 79%
h1-hermonville 29-08-2026 - 00:43 17.4°C / 81.5%
h2-hermonville 29-08-2026 - 00:43 17.2°C / 82.5%
h3-hermonville 29-08-2026 - 00:39 16.8°C / 83.5%
h4-hermonville 29-08-2026 - 00:38 17.6°C / 79%
h2-hermonville 29-08-2026 - 00:33 17°C / 83%
h1-hermonville 29-08-2026 - 00:33 17.4°C / 81%
h3-hermonville 29-08-2026 - 00:29 16.8°C / 83.5%
h4-hermonville 29-08-2026 - 00:28 17.5°C / 78.5%
h1-hermonville 29-08-2026 - 00:23 17.4°C / 81%
h2-hermonville 29-08-2026 - 00:23 16.9°C / 82.5%
h3-hermonville 29-08-2026 - 00:19 16.7°C / 83.5%
h4-hermonville 29-08-2026 - 00:18 17.6°C / 77.5%
h1-hermonville 29-08-2026 - 00:13 17.6°C / 79.5%
h2-hermonville 29-08-2026 - 00:13 17.2°C / 81.5%
h3-hermonville 29-08-2026 - 00:09 16.8°C / 82%
h4-hermonville 29-08-2026 - 00:08 17.7°C / 77%
h1-hermonville 29-08-2026 - 00:03 17.6°C / 79.5%
h2-hermonville 29-08-2026 - 00:03 17.3°C / 80.5%